Decoded Metar for KTVR (TALLULAH/VICKSBU in LA, USA) (IATA:TVR) | Meteo·Mobile Aviation Weather
aviador You're here:

KTVR Decoded Metar

TALLULAH/VICKSBU in LA, USA
Report Time2019-10-21 08:28:00
UTC Time2019-10-21 08:39:45
Flight Rules mvfr MVFR
Wind170° at 08 kt
W.Decomp.*RWY 18: 7.8 kt HW 1.7 kt LCW
Visibility9999 m
Phenomena:N/A
Clouds:Broken 016 Hf
Expected CloudBase > 800 ft AGL from Temp-Dew spread
Ceiling1,600 ft
Temp23°C (ISA +8)
Dew Point21°C (89% RH)
QNH1008 hPa
Density Alt1,532 ft
Elevation85 ft
Report Wrong Elevation
Raw Report
KTVR 210828Z AUTO 17008KT 10SM BKN016 23/21 A2977 RMK AO2
T02280206=

Extra information for KTVR:More info

Metar Taf Metar & Taf Last 4 Metars F.Rules Stats Wind Profile Meteogram Temp Stats Airport Information Weather charts Add Link Nearby VenuesMetar ALERT Operation Metar Decoded Social comments

AIRNAV info for KTVR